Aurora State Airport
KUAO : now visible

Airfield :











YOU CAN JOIN US ON...

 
LOGIN :

Register | Disclaimer

   EN    FR    IT 

 









Legend :    VFR   Marginal VFR   IFR   Intensive IFR   Very Intensive IFR
Visi :
Ceiling :
>= 8 km
>= 3000ft
5 to 8 km
1000 to 3000 ft
1500m to 5 km
500 to 1000 ft
800 to 1500m
200 to 500 ft
< 800m
< 200 ft
Symbols :   Thunderstorms  Fog  Heavy snow  Heavy precipitations  Wind > 20 kt






- Airport Elevation : 200 ft


KUAO - Aurora State

CURRENT METAR :
  • 150653Z AUTO 05003KT 1/4SM FG VV002 04/03 A3004 RMK AO2 SLP174 T00440033

EXPIRED METARs :
  • 150553Z AUTO 11003KT 1/4SM FG VV002 03/02 A3003 RMK AO2 SLP171 T00330022 10083 20028 53011
  • 150538Z AUTO 00000KT 1/4SM FG VV003 03/02 A3003 RMK AO2 T00330017
  • 150522Z AUTO 16004KT 3/4SM BR FEW003 BKN055 03/02 A3003 RMK AO2 T00280017
  • 150518Z AUTO 00000KT 2SM BR SCT055 04/02 A3003 RMK AO2 T00390022
  • 150503Z AUTO 00000KT 1 3/4SM BR BKN055 04/03 A3002 RMK AO2 T00390033
  • 150453Z AUTO 00000KT 5SM BR SCT060 05/04 A3002 RMK AO2 SLP165 T00500039

TAF KUAO
Valid from the 15 at 06:00 until the 16 at 06:00 UTC


150535Z 1506/1606 00000KT 3SM BR SCT003 BKN050
TEMPO 1506/1508 1/2SM FG BKN003
FM150800 00000KT 1SM BR OVC006
FM151000 00000KT 1/2SM FG OVC006
FM151800 20002KT 4SM BR SCT006 BKN015
FM152000 20004KT P6SM OVC050
FM160400 VRB02KT 6SM BR SCT022 BKN050



MET'MAP, your aeronautical weather chart ! - Copyright ORBIFLY December 2007 - Disclaimer

ORBIFLY MET'MAP TEAM :

Programming & Development : Alexandra Zaïnal
Concept & original design : Baudouin d'Aumeries
Assistance for programming : Marc-Olivier Méhu
Technical & hardware support : Manuel Goepfert

Contact : metmap@orbifly.com




SOURCES & CREDITS :

   NOAA       Earth
Advisory